createdAt,value
2023-10-10T00:01:48.326Z,39.78
2023-10-10T00:04:20.692Z,43.35
2023-10-10T00:06:53.206Z,42.38
2023-10-10T00:09:27.618Z,39.30
2023-10-10T00:11:59.473Z,47.22
2023-10-10T00:14:31.260Z,43.33
2023-10-10T00:17:03.153Z,40.35
2023-10-10T00:19:45.329Z,34.15
2023-10-10T00:22:19.019Z,42.80
2023-10-10T00:24:50.782Z,37.95
2023-10-10T00:27:25.045Z,45.92
2023-10-10T00:29:56.862Z,42.80
2023-10-10T00:32:30.728Z,41.58
2023-10-10T00:35:03.941Z,46.33
2023-10-10T00:37:36.434Z,44.97
2023-10-10T00:40:12.160Z,45.90
2023-10-10T00:42:43.981Z,42.88
2023-10-10T00:45:16.022Z,42.65
2023-10-10T00:47:49.210Z,40.38
2023-10-10T00:50:26.211Z,40.88
2023-10-10T00:52:58.334Z,43.85
2023-10-10T00:55:34.906Z,38.78
2023-10-10T00:58:09.147Z,33.78
2023-10-10T01:00:47.669Z,41.35
2023-10-10T01:03:22.968Z,37.97
2023-10-10T01:05:55.503Z,37.63
2023-10-10T01:08:32.734Z,40.42
2023-10-10T01:11:06.769Z,39.50
2023-10-10T01:13:41.515Z,42.22
2023-10-10T01:16:13.486Z,41.92
2023-10-10T01:18:58.884Z,34.72
2023-10-10T01:21:32.374Z,36.75
2023-10-10T01:24:13.171Z,39.92
2023-10-10T01:26:48.837Z,42.50
2023-10-10T01:29:28.574Z,38.78
2023-10-10T01:32:00.726Z,45.72
2023-10-10T01:34:32.700Z,39.72
2023-10-10T01:37:09.174Z,39.10
2023-10-10T01:40:19.260Z,41.75
2023-10-10T01:42:55.710Z,39.00
2023-10-10T01:45:31.278Z,42.97
2023-10-10T01:48:09.906Z,40.65
2023-10-10T01:50:42.244Z,44.63
2023-10-10T01:53:14.066Z,47.10
2023-10-10T01:55:48.943Z,45.17
2023-10-10T01:58:21.546Z,48.10
2023-10-10T02:00:55.948Z,43.58
2023-10-10T02:03:29.445Z,45.58
2023-10-10T02:06:01.758Z,42.50
2023-10-10T02:08:36.393Z,37.55
2023-10-10T02:11:10.108Z,36.65
2023-10-10T02:13:46.037Z,39.63
2023-10-10T02:16:24.939Z,42.70
2023-10-10T02:19:00.598Z,39.03
2023-10-10T02:21:44.512Z,44.45
2023-10-10T02:24:45.433Z,43.45
2023-10-10T02:27:21.549Z,43.20
2023-10-10T02:29:54.886Z,37.28
2023-10-10T02:32:30.918Z,34.95
2023-10-10T02:35:28.340Z,42.58
2023-10-10T02:38:05.179Z,40.88
2023-10-10T02:40:44.141Z,40.63
2023-10-10T02:43:34.886Z,41.38
2023-10-10T02:46:07.272Z,38.58
2023-10-10T02:48:43.541Z,39.58
2023-10-10T02:51:17.304Z,39.55
2023-10-10T02:53:49.264Z,35.58
2023-10-10T02:56:21.500Z,38.95
2023-10-10T02:58:55.767Z,36.50
2023-10-10T03:01:46.027Z,39.63
2023-10-10T03:04:19.094Z,40.67
2023-10-10T03:06:51.033Z,37.90
2023-10-10T03:09:43.080Z,40.97
2023-10-10T03:12:18.991Z,41.13
2023-10-10T03:14:54.685Z,33.08
2023-10-10T03:17:45.689Z,33.47
2023-10-10T03:20:35.894Z,38.90
2023-10-10T03:23:14.113Z,39.78
2023-10-10T03:25:56.051Z,39.92
2023-10-10T03:28:27.933Z,35.97
2023-10-10T03:31:24.380Z,34.65
2023-10-10T03:34:05.082Z,32.05
2023-10-10T03:36:46.535Z,35.75
2023-10-10T03:39:25.488Z,38.53
2023-10-10T03:42:15.748Z,39.70
2023-10-10T03:45:06.224Z,34.88
2023-10-10T03:47:56.647Z,39.35
2023-10-10T03:50:47.105Z,42.40
2023-10-10T03:53:37.601Z,37.00
2023-10-10T03:56:34.405Z,37.47
2023-10-10T03:59:25.237Z,36.38
2023-10-10T04:05:23.785Z,40.83
2023-10-10T04:08:16.604Z,43.90
2023-10-10T04:11:07.067Z,42.97
2023-10-10T04:13:57.552Z,40.25
2023-10-10T04:16:47.935Z,39.67
2023-10-10T04:19:38.293Z,43.83
2023-10-10T04:22:28.665Z,46.67
2023-10-10T04:25:19.121Z,41.20
2023-10-10T04:28:09.433Z,48.53
2023-10-10T04:31:00.014Z,45.35
2023-10-10T04:33:50.095Z,52.05
2023-10-10T04:36:40.517Z,49.20
2023-10-10T04:39:30.896Z,52.65
2023-10-10T04:42:21.300Z,50.38
2023-10-10T04:45:11.614Z,52.50
2023-10-10T04:48:02.114Z,47.70
2023-10-10T04:50:52.565Z,50.88
2023-10-10T04:53:43.143Z,53.33
2023-10-10T04:56:33.650Z,44.15
2023-10-10T04:59:24.126Z,50.65
2023-10-10T05:02:14.415Z,44.35
2023-10-10T05:05:04.914Z,48.28
2023-10-10T05:07:55.324Z,48.75
2023-10-10T05:10:45.776Z,45.95
2023-10-10T05:13:36.123Z,48.00
2023-10-10T05:16:26.607Z,50.05
2023-10-10T05:19:16.773Z,46.78
2023-10-10T05:22:07.236Z,48.92
2023-10-10T05:24:44.604Z,54.28
2023-10-10T05:27:16.493Z,45.65
2023-10-10T05:29:51.340Z,50.47
2023-10-10T05:32:24.469Z,46.90
2023-10-10T05:34:58.557Z,46.60
2023-10-10T05:37:32.986Z,48.95
2023-10-10T05:40:08.322Z,40.78
2023-10-10T05:42:40.838Z,45.60
2023-10-10T05:45:15.202Z,45.45
2023-10-10T05:47:47.148Z,42.78
2023-10-10T05:50:20.096Z,46.53
2023-10-10T05:52:53.136Z,43.30
2023-10-10T05:55:24.939Z,45.72
2023-10-10T05:57:58.725Z,47.42
2023-10-10T06:00:37.861Z,53.85
2023-10-10T06:03:11.566Z,59.28
2023-10-10T06:05:47.312Z,61.50
2023-10-10T06:08:19.397Z,64.68
2023-10-10T06:10:51.212Z,66.18
2023-10-10T06:13:23.933Z,53.90
2023-10-10T06:15:55.824Z,53.97
2023-10-10T06:18:27.714Z,53.88
2023-10-10T06:23:38.872Z,53.15
2023-10-10T06:26:11.180Z,47.17
2023-10-10T06:28:49.553Z,45.90
2023-10-10T06:31:22.318Z,48.88
2023-10-10T06:33:59.314Z,46.25
2023-10-10T06:36:34.007Z,43.85
2023-10-10T06:39:06.250Z,40.97
2023-10-10T06:41:40.596Z,42.55
2023-10-10T06:44:15.448Z,34.85
2023-10-10T06:46:50.746Z,39.90
2023-10-10T06:49:23.769Z,37.15
2023-10-10T06:51:56.843Z,40.30
2023-10-10T06:54:35.899Z,36.08
2023-10-10T06:57:10.479Z,42.00
2023-10-10T06:59:42.370Z,36.58
2023-10-10T07:02:20.438Z,37.33
2023-10-10T07:04:55.101Z,32.22
2023-10-10T07:07:27.868Z,30.38
2023-10-10T07:10:00.240Z,31.02
2023-10-10T07:12:33.210Z,34.65
2023-10-10T07:15:07.994Z,27.88
2023-10-10T07:17:40.610Z,30.88
2023-10-10T07:20:12.515Z,26.73
2023-10-10T07:22:46.167Z,22.67
2023-10-10T07:25:33.638Z,23.92
2023-10-10T07:28:06.583Z,23.10
2023-10-10T07:30:44.103Z,21.98
2023-10-10T07:33:15.883Z,18.38
2023-10-10T07:35:54.969Z,19.60
2023-10-10T07:38:30.413Z,17.35
2023-10-10T07:41:06.215Z,27.27
2023-10-10T07:43:39.352Z,20.85
2023-10-10T07:46:23.984Z,24.58
2023-10-10T07:48:55.825Z,19.45
2023-10-10T07:51:30.234Z,20.25
2023-10-10T07:54:14.368Z,14.05
2023-10-10T07:56:46.989Z,13.23
2023-10-10T07:59:19.012Z,12.52
2023-10-10T08:01:55.345Z,13.10
2023-10-10T08:04:27.185Z,13.65
2023-10-10T08:06:58.957Z,15.05
2023-10-10T08:09:31.317Z,12.48
2023-10-10T08:12:06.243Z,15.70
2023-10-10T08:14:41.105Z,12.95
2023-10-10T08:17:27.557Z,12.13
2023-10-10T08:20:19.406Z,7.55
2023-10-10T08:22:51.153Z,7.68
2023-10-10T08:25:24.482Z,9.00
2023-10-10T08:27:57.205Z,8.88
2023-10-10T08:30:29.076Z,9.10
2023-10-10T08:33:01.685Z,6.68
2023-10-10T08:35:40.559Z,7.10
2023-10-10T08:38:14.735Z,5.82
2023-10-10T08:40:59.493Z,7.32
2023-10-10T08:43:33.101Z,5.30
2023-10-10T08:46:05.795Z,5.22
2023-10-10T08:48:38.788Z,6.70
2023-10-10T08:51:10.752Z,6.90
2023-10-10T08:53:42.578Z,7.25
2023-10-10T08:56:16.588Z,6.57
2023-10-10T08:58:48.430Z,5.88
2023-10-10T09:01:20.353Z,14.02
2023-10-10T09:03:52.225Z,8.25
2023-10-10T09:06:24.031Z,7.65
2023-10-10T09:08:57.066Z,12.15
2023-10-10T09:11:31.937Z,7.72
2023-10-10T09:14:11.338Z,6.65
2023-10-10T09:16:43.385Z,6.32
2023-10-10T09:19:16.180Z,5.88
2023-10-10T09:21:57.677Z,9.65
2023-10-10T09:24:38.913Z,6.80
2023-10-10T09:27:29.750Z,7.35
2023-10-10T09:30:10.068Z,7.10
2023-10-10T09:32:44.197Z,7.18
2023-10-10T09:35:16.123Z,5.55
2023-10-10T09:37:48.345Z,6.97
2023-10-10T09:40:20.854Z,6.43
2023-10-10T09:43:02.701Z,7.47
2023-10-10T09:45:54.432Z,6.75
2023-10-10T09:48:55.613Z,6.60
2023-10-10T09:51:48.444Z,5.25
2023-10-10T09:54:26.859Z,5.82
2023-10-10T09:57:00.322Z,5.88
2023-10-10T09:59:33.912Z,8.52
2023-10-10T10:02:06.644Z,4.97
2023-10-10T10:04:43.477Z,7.97
2023-10-10T10:07:29.026Z,6.15
2023-10-10T10:10:49.968Z,5.93
2023-10-10T10:13:57.889Z,5.57
2023-10-10T10:16:47.929Z,6.97
2023-10-10T10:19:24.138Z,6.63
2023-10-10T10:22:09.720Z,6.63
2023-10-10T10:24:47.375Z,5.93
2023-10-10T10:27:36.661Z,6.68
2023-10-10T10:30:20.836Z,5.90
2023-10-10T10:32:56.989Z,7.72
2023-10-10T10:35:58.508Z,8.10
2023-10-10T10:38:33.205Z,10.32
2023-10-10T10:41:18.535Z,7.55
2023-10-10T10:43:53.335Z,6.30
2023-10-10T10:46:41.192Z,5.57
2023-10-10T10:49:16.609Z,30.17
2023-10-10T10:51:48.894Z,5.30
2023-10-10T10:54:38.742Z,6.93
2023-10-10T10:57:43.126Z,5.00
2023-10-10T11:00:41.911Z,4.78
2023-10-10T11:03:14.736Z,4.90
2023-10-10T11:05:46.748Z,5.82
2023-10-10T11:08:50.620Z,3.90
2023-10-10T11:11:37.160Z,4.73
2023-10-10T11:14:20.561Z,4.05
2023-10-10T11:16:58.353Z,4.22
2023-10-10T11:19:31.523Z,6.00
2023-10-10T11:22:06.891Z,5.57
2023-10-10T11:24:38.920Z,5.30
2023-10-10T11:27:13.272Z,4.93
2023-10-10T11:29:51.599Z,4.10
2023-10-10T11:32:30.663Z,3.83
2023-10-10T11:35:17.602Z,4.70
2023-10-10T11:37:50.367Z,4.50
2023-10-10T11:40:42.404Z,4.65
2023-10-10T11:43:14.474Z,3.03
2023-10-10T11:45:52.967Z,7.30
2023-10-10T11:48:27.771Z,3.67
2023-10-10T11:51:00.903Z,4.18
2023-10-10T11:53:38.181Z,4.00
2023-10-10T11:56:15.220Z,4.05
2023-10-10T11:58:50.875Z,5.88
2023-10-10T12:01:42.667Z,5.10
2023-10-10T12:04:40.345Z,4.15
2023-10-10T12:07:15.279Z,4.40
2023-10-10T12:09:48.923Z,4.60
2023-10-10T12:12:22.873Z,5.53
2023-10-10T12:14:55.092Z,5.93
2023-10-10T12:17:29.600Z,20.10
2023-10-10T12:20:01.440Z,6.60
2023-10-10T12:22:33.247Z,5.18
2023-10-10T12:25:06.292Z,5.50
2023-10-10T12:27:38.064Z,6.07
2023-10-10T12:30:14.387Z,5.10
2023-10-10T12:32:50.866Z,6.88
2023-10-10T12:35:25.750Z,6.05
2023-10-10T12:38:02.638Z,6.63
2023-10-10T12:40:34.927Z,5.63
2023-10-10T12:43:09.226Z,5.45
2023-10-10T12:45:41.009Z,6.20
2023-10-10T12:48:21.814Z,5.15
2023-10-10T12:50:53.988Z,5.28
2023-10-10T12:53:32.048Z,7.70
2023-10-10T12:56:03.877Z,6.28
2023-10-10T12:58:35.667Z,5.43
2023-10-10T13:01:07.444Z,5.05
2023-10-10T13:03:39.826Z,5.53
2023-10-10T13:06:11.747Z,5.18
2023-10-10T13:09:04.386Z,4.88
2023-10-10T13:11:45.529Z,5.95
2023-10-10T13:14:20.585Z,5.65
2023-10-10T13:16:52.863Z,4.43
2023-10-10T13:19:24.820Z,5.63
2023-10-10T13:21:56.620Z,6.82
2023-10-10T13:24:28.420Z,5.68
2023-10-10T13:27:00.239Z,5.05
2023-10-10T13:29:32.088Z,4.57
2023-10-10T13:32:06.158Z,5.88
2023-10-10T13:34:39.111Z,5.72
2023-10-10T13:37:10.976Z,5.22
2023-10-10T13:39:49.242Z,5.45
2023-10-10T13:42:22.095Z,5.65
2023-10-10T13:45:02.702Z,5.38
2023-10-10T13:47:34.602Z,4.95
2023-10-10T13:50:26.829Z,6.57
2023-10-10T13:53:00.801Z,7.63
2023-10-10T13:55:35.566Z,5.22
2023-10-10T13:58:13.521Z,10.07
2023-10-10T14:00:57.120Z,6.30
2023-10-10T14:03:36.853Z,4.25
2023-10-10T14:06:13.799Z,5.68
2023-10-10T14:08:45.777Z,7.03
2023-10-10T14:11:25.029Z,6.28
2023-10-10T14:13:57.088Z,5.03
2023-10-10T14:16:31.444Z,4.25
2023-10-10T14:19:03.288Z,4.43
2023-10-10T14:21:39.996Z,5.53
2023-10-10T14:24:15.366Z,5.10
2023-10-10T14:26:50.210Z,5.00
2023-10-10T14:29:22.251Z,5.25
2023-10-10T14:32:00.245Z,4.05
2023-10-10T14:34:36.488Z,6.28
2023-10-10T14:37:20.464Z,5.30
2023-10-10T14:40:01.093Z,4.22
2023-10-10T14:42:32.856Z,4.95
2023-10-10T14:45:08.020Z,9.07
2023-10-10T14:47:44.181Z,8.43
2023-10-10T14:50:16.010Z,5.25
2023-10-10T14:52:51.105Z,6.35
2023-10-10T14:55:25.808Z,4.88
2023-10-10T14:57:57.747Z,6.13
2023-10-10T15:00:30.200Z,4.30
2023-10-10T15:03:02.607Z,6.00
2023-10-10T15:05:34.504Z,5.05
2023-10-10T15:08:06.562Z,5.97
2023-10-10T15:10:42.308Z,5.35
2023-10-10T15:13:16.810Z,5.40
2023-10-10T15:15:49.659Z,5.35
2023-10-10T15:18:21.567Z,7.63
2023-10-10T15:20:53.980Z,6.82
2023-10-10T15:23:26.498Z,7.68
2023-10-10T15:26:13.084Z,8.43
2023-10-10T15:28:45.631Z,8.60
2023-10-10T15:31:17.428Z,10.50
2023-10-10T15:33:49.252Z,8.05
2023-10-10T15:36:21.124Z,12.18
2023-10-10T15:38:52.887Z,9.48
2023-10-10T15:41:26.680Z,11.00
2023-10-10T15:44:04.092Z,12.43
2023-10-10T15:46:38.857Z,10.93
2023-10-10T15:49:33.225Z,13.43
2023-10-10T15:52:06.281Z,12.93
2023-10-10T15:54:38.512Z,14.82
2023-10-10T15:57:10.972Z,15.43
2023-10-10T15:59:43.775Z,18.27
2023-10-10T16:02:15.916Z,14.60
2023-10-10T16:04:47.792Z,13.57
2023-10-10T16:07:19.660Z,11.38
2023-10-10T16:09:53.757Z,10.65
2023-10-10T16:12:25.586Z,9.38
2023-10-10T16:14:57.447Z,10.05
2023-10-10T16:17:30.154Z,8.43
2023-10-10T16:20:06.684Z,11.52
2023-10-10T16:22:40.992Z,14.18
2023-10-10T16:25:14.806Z,12.70
2023-10-10T16:27:46.563Z,19.77
2023-10-10T16:30:18.484Z,20.10
2023-10-10T16:32:51.005Z,21.98
2023-10-10T16:35:22.969Z,19.48
2023-10-10T16:37:55.123Z,19.70
2023-10-10T16:40:30.879Z,18.55
2023-10-10T16:43:03.583Z,22.58
2023-10-10T16:45:35.382Z,31.60
2023-10-10T16:48:10.096Z,28.70
2023-10-10T16:50:43.301Z,33.70
2023-10-10T16:53:15.184Z,32.35
2023-10-10T16:55:46.968Z,36.50
2023-10-10T16:58:18.976Z,35.25
2023-10-10T17:00:51.188Z,36.58
2023-10-10T17:03:24.010Z,44.72
2023-10-10T17:05:58.648Z,28.10
2023-10-10T17:08:33.534Z,30.75
2023-10-10T17:11:15.985Z,29.63
2023-10-10T17:13:48.412Z,30.60
2023-10-10T17:16:30.295Z,34.92
2023-10-10T17:19:16.333Z,35.65
2023-10-10T17:21:48.984Z,30.63
2023-10-10T17:24:21.385Z,27.60
2023-10-10T17:26:55.375Z,28.45
2023-10-10T17:29:28.071Z,25.95
2023-10-10T17:32:01.240Z,22.95
2023-10-10T17:34:34.897Z,21.42
2023-10-10T17:37:10.194Z,18.95
2023-10-10T17:39:41.994Z,23.83
2023-10-10T17:42:13.751Z,20.77
2023-10-10T17:44:46.050Z,22.77
2023-10-10T17:47:17.888Z,22.73
2023-10-10T17:49:49.694Z,21.13
2023-10-10T17:52:22.800Z,20.17
2023-10-10T17:54:54.787Z,23.08
2023-10-10T17:57:26.572Z,21.85
2023-10-10T17:59:58.507Z,19.20
2023-10-10T18:02:33.546Z,19.23
2023-10-10T18:05:06.934Z,14.57
2023-10-10T18:07:39.718Z,12.57
2023-10-10T18:10:12.805Z,15.30
2023-10-10T18:12:44.978Z,17.25
2023-10-10T18:15:20.279Z,19.73
2023-10-10T18:17:57.031Z,16.75
2023-10-10T18:20:31.169Z,18.80
2023-10-10T18:23:03.300Z,16.33
2023-10-10T18:25:39.269Z,15.07
2023-10-10T18:28:12.364Z,14.77
2023-10-10T18:30:46.927Z,15.13
2023-10-10T18:33:18.820Z,18.15
2023-10-10T18:35:50.742Z,17.80
2023-10-10T18:38:22.560Z,17.65
2023-10-10T18:40:56.118Z,15.60
2023-10-10T18:43:27.979Z,17.13
2023-10-10T18:46:01.590Z,17.15
2023-10-10T18:48:38.420Z,19.15
2023-10-10T18:51:14.762Z,20.80
2023-10-10T18:53:48.682Z,18.92
2023-10-10T18:56:20.550Z,20.10
2023-10-10T18:58:52.383Z,20.60
2023-10-10T19:01:24.368Z,18.35
2023-10-10T19:03:56.223Z,19.77
2023-10-10T19:06:28.094Z,19.40
2023-10-10T19:09:01.636Z,19.70
2023-10-10T19:11:33.588Z,16.75
2023-10-10T19:14:05.431Z,19.65
2023-10-10T19:16:40.363Z,17.17
2023-10-10T19:19:12.157Z,15.20
2023-10-10T19:21:46.498Z,17.10
2023-10-10T19:24:21.626Z,18.63
2023-10-10T19:26:54.535Z,20.33
2023-10-10T19:29:30.153Z,26.35
2023-10-10T19:32:02.011Z,24.52
2023-10-10T19:34:34.491Z,24.05
2023-10-10T19:37:06.293Z,23.38
2023-10-10T19:39:38.055Z,22.65
2023-10-10T19:42:09.852Z,18.83
2023-10-10T19:44:41.682Z,18.35
2023-10-10T19:47:13.487Z,18.20
2023-10-10T19:49:45.299Z,17.38
2023-10-10T19:52:17.072Z,19.85
2023-10-10T19:54:48.857Z,19.27
2023-10-10T19:57:20.642Z,20.50
2023-10-10T19:59:52.433Z,18.63
2023-10-10T20:02:24.375Z,19.02
2023-10-10T20:04:56.988Z,17.13
2023-10-10T20:07:28.983Z,16.58
2023-10-10T20:10:00.741Z,17.33
2023-10-10T20:12:32.514Z,17.00
2023-10-10T20:15:04.730Z,19.83
2023-10-10T20:17:37.723Z,17.38
2023-10-10T20:20:10.824Z,18.35
2023-10-10T20:22:45.682Z,16.13
2023-10-10T20:25:20.264Z,15.93
2023-10-10T20:27:52.133Z,17.33
2023-10-10T20:30:27.652Z,16.20
2023-10-10T20:33:02.700Z,16.45
2023-10-10T20:35:36.293Z,18.33
2023-10-10T20:38:08.125Z,17.23
2023-10-10T20:40:44.540Z,18.48
2023-10-10T20:43:16.541Z,16.75
2023-10-10T20:45:48.394Z,15.52
2023-10-10T20:48:23.355Z,14.23
2023-10-10T20:50:55.379Z,15.38
2023-10-10T20:53:29.339Z,15.73
2023-10-10T20:56:03.350Z,15.23
2023-10-10T20:58:35.989Z,17.67
2023-10-10T21:01:13.326Z,13.00
2023-10-10T21:03:45.410Z,15.88
2023-10-10T21:06:17.233Z,14.90
2023-10-10T21:08:50.696Z,15.73
2023-10-10T21:11:23.136Z,20.42
2023-10-10T21:13:54.953Z,20.75
2023-10-10T21:16:26.850Z,22.70
2023-10-10T21:18:59.089Z,21.05
2023-10-10T21:21:30.943Z,30.13
2023-10-10T21:24:02.745Z,27.13
2023-10-10T21:26:34.678Z,25.45
2023-10-10T21:29:06.449Z,20.13
2023-10-10T21:31:38.205Z,18.38
2023-10-10T21:34:11.799Z,18.85
2023-10-10T21:36:43.606Z,16.95
2023-10-10T21:39:19.964Z,15.27
2023-10-10T21:41:51.818Z,15.27
2023-10-10T21:44:23.644Z,13.32
2023-10-10T21:46:55.431Z,15.07
2023-10-10T21:49:30.183Z,15.05
2023-10-10T21:52:02.419Z,18.38
2023-10-10T21:54:34.215Z,15.45
2023-10-10T21:57:05.996Z,16.60
2023-10-10T21:59:39.123Z,16.13
2023-10-10T22:02:11.096Z,17.23
2023-10-10T22:04:44.274Z,16.73
2023-10-10T22:15:38.785Z,15.02
2023-10-10T22:18:13.248Z,16.80
2023-10-10T22:20:45.478Z,15.15
2023-10-10T22:23:17.389Z,14.02
2023-10-10T22:25:49.546Z,18.98
2023-10-10T22:28:21.479Z,18.17
2023-10-10T22:30:53.438Z,17.88
2023-10-10T22:33:25.395Z,14.32
2023-10-10T22:35:57.557Z,17.20
2023-10-10T22:38:29.503Z,14.25
2023-10-10T22:41:01.409Z,13.15
2023-10-10T22:43:33.323Z,16.60
2023-10-10T22:46:05.302Z,13.32
2023-10-10T22:48:37.806Z,17.23
2023-10-10T22:51:11.186Z,14.90
2023-10-10T22:53:43.716Z,17.40
2023-10-10T22:56:19.588Z,15.30
2023-10-10T22:58:51.557Z,17.48
2023-10-10T23:01:23.762Z,14.77
2023-10-10T23:03:56.791Z,17.20
2023-10-10T23:06:29.954Z,15.07
2023-10-10T23:09:08.963Z,18.17
2023-10-10T23:11:41.064Z,15.57
2023-10-10T23:14:14.279Z,15.65
2023-10-10T23:16:46.371Z,14.75
2023-10-10T23:19:19.042Z,17.67
2023-10-10T23:21:50.956Z,14.55
2023-10-10T23:24:22.862Z,14.25
2023-10-10T23:26:55.956Z,19.17
2023-10-10T23:29:27.912Z,15.00
2023-10-10T23:32:00.587Z,14.57
2023-10-10T23:34:32.600Z,16.10
2023-10-10T23:37:05.123Z,14.45
2023-10-10T23:39:37.059Z,13.77
2023-10-10T23:42:10.810Z,15.23
2023-10-10T23:44:42.795Z,15.15
2023-10-10T23:47:14.738Z,16.50
2023-10-10T23:49:48.480Z,14.23
2023-10-10T23:52:22.539Z,13.23
2023-10-10T23:54:54.463Z,16.02
2023-10-10T23:57:26.391Z,21.98
2023-10-10T23:59:58.454Z,19.98
